Trans Future 8 — 3EZG6 — position and weather

sailwx.info

Track history (hours):
 
Tides and Currents Weather Stations Pressure Air Temp Water Temp Dewpoint Dewpoint Depression Visibility Wind Speed Wind Dir Waves Ship Positions

Trans Future 8

Last reported at 2018-Jun-18 15:47 UTC. Time now 2018-Jun-20 15:11 UTC.
Position N 33°39' E 135°06'.

Length 166 m; draft 5.7 m.

Type: Cargo ship. MMSI: 371320000.

Date/timePositionNaut miles runAvg speedWind from/ knotsBaromVisibWave heightAir tempDewpointWater temp
2018-Jun-18 15:47N 33°39' E 135°06'620.5
2018-Jun-18 15:30N 33°43' E 135°01'1118.5
2018-Jun-18 14:55N 33°53' E 134°55'819.0
2018-Jun-18 14:30N 34°01' E 134°56'917.4
2018-Jun-18 14:00N 34°09' E 134°57'612.2
2018-Jun-18 13:30N 34°15' E 134°58'816.4
2018-Jun-18 13:01N 34°23' E 135°01'918.7
2018-Jun-18 12:30N 34°28' E 135°10'816.8
2018-Jun-18 12:01N 34°32' E 135°20'3 6.9
2018-Jun-18 11:30N 34°31' E 135°24'0 0.4
2018-Jun-18 10:55N 34°31' E 135°23'0 0.0
2018-Jun-18 10:07N 34°31' E 135°23'0 0.0
2018-Jun-18 09:49N 34°31' E 135°23'0 0.0
2018-Jun-18 09:13N 34°31' E 135°23'0 0.0
2018-Jun-18 08:55N 34°31' E 135°23'0 0.0
2018-Jun-18 06:32N 34°31' E 135°23'0 0.0
2018-Jun-18 06:30N 34°31' E 135°23'2 3.6
2018-Jun-18 06:00N 34°32' E 135°23'4 7.9
2018-Jun-18 05:30N 34°32' E 135°18'713.7
2018-Jun-18 05:00N 34°28' E 135°11'816.2
2018-Jun-18 04:30N 34°22' E 135°04'815.9
2018-Jun-18 04:00N 34°15' E 134°59'713.5
2018-Jun-18 03:30N 34°09' E 134°60'815.8
2018-Jun-18 03:01N 34°01' E 134°59'1019.1
2018-Jun-18 02:31N 33°51' E 134°58'  
Track history (hours):
 
Tides and Currents Weather Stations Pressure Air Temp Water Temp Dewpoint Dewpoint Depression Visibility Wind Speed Wind Dir Waves Ship Positions

Trans Future 8

Last reported at 2018-Jun-18 15:47 UTC. Time now 2018-Jun-20 15:11 UTC.
Position N 33°39' E 135°06'.

Length 166 m; draft 5.7 m.

Type: Cargo ship. MMSI: 371320000.

Date/timePositionNaut miles runAvg speedWind from/ knotsBaromVisibWave heightAir tempDewpointWater temp
2018-Jun-18 15:47N 33°39' E 135°06'620.5
2018-Jun-18 15:30N 33°43' E 135°01'1118.5
2018-Jun-18 14:55N 33°53' E 134°55'819.0
2018-Jun-18 14:30N 34°01' E 134°56'917.4
2018-Jun-18 14:00N 34°09' E 134°57'612.2
2018-Jun-18 13:30N 34°15' E 134°58'816.4
2018-Jun-18 13:01N 34°23' E 135°01'918.7
2018-Jun-18 12:30N 34°28' E 135°10'816.8
2018-Jun-18 12:01N 34°32' E 135°20'3 6.9
2018-Jun-18 11:30N 34°31' E 135°24'0 0.4
2018-Jun-18 10:55N 34°31' E 135°23'0 0.0
2018-Jun-18 10:07N 34°31' E 135°23'0 0.0
2018-Jun-18 09:49N 34°31' E 135°23'0 0.0
2018-Jun-18 09:13N 34°31' E 135°23'0 0.0
2018-Jun-18 08:55N 34°31' E 135°23'0 0.0
2018-Jun-18 06:32N 34°31' E 135°23'0 0.0
2018-Jun-18 06:30N 34°31' E 135°23'2 3.6
2018-Jun-18 06:00N 34°32' E 135°23'4 7.9
2018-Jun-18 05:30N 34°32' E 135°18'713.7
2018-Jun-18 05:00N 34°28' E 135°11'816.2
2018-Jun-18 04:30N 34°22' E 135°04'815.9
2018-Jun-18 04:00N 34°15' E 134°59'713.5
2018-Jun-18 03:30N 34°09' E 134°60'815.8
2018-Jun-18 03:01N 34°01' E 134°59'1019.1
2018-Jun-18 02:31N 33°51' E 134°58'  

Dump ship's entire track history